createdAt,value
2023-03-28T00:01:39.088Z,0.50
2023-03-28T00:04:29.971Z,0.70
2023-03-28T00:07:18.176Z,0.60
2023-03-28T00:10:07.387Z,0.50
2023-03-28T00:12:55.695Z,0.60
2023-03-28T00:15:45.356Z,0.50
2023-03-28T00:18:37.667Z,0.40
2023-03-28T00:21:29.350Z,0.50
2023-03-28T00:24:21.561Z,0.50
2023-03-28T00:27:10.309Z,0.50
2023-03-28T00:29:59.569Z,0.50
2023-03-28T00:32:49.148Z,0.40
2023-03-28T00:35:37.488Z,0.50
2023-03-28T00:38:27.593Z,0.40
2023-03-28T00:41:16.150Z,0.50
2023-03-28T00:44:54.264Z,0.60
2023-03-28T00:47:46.411Z,0.50
2023-03-28T00:50:39.240Z,0.50
2023-03-28T00:53:27.798Z,0.40
2023-03-28T00:56:20.417Z,0.50
2023-03-28T00:59:14.032Z,0.50
2023-03-28T01:02:02.401Z,0.60
2023-03-28T01:04:57.853Z,0.60
2023-03-28T01:07:52.565Z,0.50
2023-03-28T01:10:42.020Z,0.70
2023-03-28T01:13:34.282Z,0.60
2023-03-28T01:16:23.807Z,0.50
2023-03-28T01:19:28.330Z,0.60
2023-03-28T01:22:57.147Z,0.60
2023-03-28T01:26:21.771Z,0.67
2023-03-28T01:29:36.114Z,0.70
2023-03-28T01:33:01.919Z,0.60
2023-03-28T01:36:35.773Z,0.60
2023-03-28T01:39:34.458Z,0.70
2023-03-28T01:42:28.472Z,0.50
2023-03-28T01:45:24.113Z,0.57
2023-03-28T01:48:23.158Z,0.60
2023-03-28T01:51:20.305Z,0.60
2023-03-28T01:54:16.107Z,0.68
2023-03-28T01:57:11.626Z,0.60
2023-03-28T02:00:11.533Z,0.57
2023-03-28T02:03:04.092Z,0.50
2023-03-28T02:05:54.572Z,0.70
2023-03-28T02:08:46.402Z,0.60
2023-03-28T02:11:37.344Z,0.50
2023-03-28T02:14:30.978Z,0.60
2023-03-28T02:17:21.531Z,0.63
2023-03-28T02:20:14.736Z,0.60
2023-03-28T02:23:07.764Z,0.50
2023-03-28T02:25:56.267Z,0.60
2023-03-28T02:28:48.846Z,0.50
2023-03-28T02:31:38.704Z,0.70
2023-03-28T02:34:27.230Z,0.57
2023-03-28T02:37:26.425Z,0.70
2023-03-28T02:40:40.775Z,0.60
2023-03-28T02:43:54.263Z,0.57
2023-03-28T02:46:50.747Z,0.60
2023-03-28T02:49:50.653Z,0.60
2023-03-28T02:52:51.669Z,0.70
2023-03-28T02:55:45.706Z,0.60
2023-03-28T02:58:40.217Z,0.60
2023-03-28T03:01:30.251Z,0.60
2023-03-28T03:04:18.919Z,0.60
2023-03-28T03:07:09.044Z,0.57
2023-03-28T03:09:57.358Z,0.50
2023-03-28T03:12:45.774Z,0.50
2023-03-28T03:15:35.652Z,0.60
2023-03-28T03:18:26.273Z,0.53
2023-03-28T03:21:14.587Z,0.70
2023-03-28T03:24:03.208Z,0.60
2023-03-28T03:26:51.769Z,0.60
2023-03-28T03:29:40.027Z,0.50
2023-03-28T03:32:28.584Z,0.50
2023-03-28T03:35:19.980Z,0.53
2023-03-28T03:38:08.345Z,0.70
2023-03-28T03:40:56.706Z,0.50
2023-03-28T03:43:47.051Z,0.60
2023-03-28T03:46:35.893Z,0.67
2023-03-28T03:49:24.289Z,0.50
2023-03-28T03:52:13.952Z,0.60
2023-03-28T03:55:02.517Z,0.43
2023-03-28T03:57:50.730Z,0.70
2023-03-28T04:00:39.808Z,0.60
2023-03-28T04:03:29.064Z,0.70
2023-03-28T04:06:17.517Z,0.67
2023-03-28T04:09:07.739Z,0.70
2023-03-28T04:11:56.315Z,0.73
2023-03-28T04:14:44.551Z,0.60
2023-03-28T04:17:35.004Z,0.70
2023-03-28T04:20:25.735Z,0.53
2023-03-28T04:23:14.072Z,0.80
2023-03-28T04:26:03.796Z,0.87
2023-03-28T04:28:52.610Z,0.63
2023-03-28T04:31:41.174Z,0.70
2023-03-28T04:34:31.399Z,0.80
2023-03-28T04:37:20.426Z,0.73
2023-03-28T04:40:11.472Z,0.70
2023-03-28T04:43:01.157Z,0.90
2023-03-28T04:45:49.575Z,0.70
2023-03-28T04:48:38.029Z,0.90
2023-03-28T04:51:28.688Z,0.87
2023-03-28T04:54:17.599Z,0.70
2023-03-28T04:57:05.919Z,0.90
2023-03-28T04:59:56.176Z,0.70
2023-03-28T05:02:44.674Z,0.67
2023-03-28T05:05:33.064Z,0.77
2023-03-28T05:08:23.700Z,0.87
2023-03-28T05:11:12.422Z,0.70
2023-03-28T05:14:00.801Z,1.00
2023-03-28T05:16:50.770Z,0.83
2023-03-28T05:19:39.190Z,0.80
2023-03-28T05:22:27.389Z,0.70
2023-03-28T05:25:15.648Z,0.73
2023-03-28T05:28:04.605Z,0.70
2023-03-28T05:30:53.063Z,0.82
2023-03-28T05:33:42.647Z,0.73
2023-03-28T05:36:31.536Z,0.70
2023-03-28T05:39:19.750Z,0.73
2023-03-28T05:42:09.008Z,0.73
2023-03-28T05:44:57.367Z,0.70
2023-03-28T05:47:45.690Z,0.70
2023-03-28T05:50:35.496Z,0.90
2023-03-28T05:53:23.764Z,0.80
2023-03-28T05:56:12.164Z,0.70
2023-03-28T05:59:00.472Z,0.90
2023-03-28T06:01:50.110Z,1.07
2023-03-28T06:04:38.652Z,1.13
2023-03-28T06:07:41.396Z,0.87
2023-03-28T06:10:31.549Z,0.77
2023-03-28T06:13:19.905Z,0.80
2023-03-28T06:16:08.657Z,1.10
2023-03-28T06:19:10.431Z,0.70
2023-03-28T06:22:03.961Z,0.70
2023-03-28T06:24:53.978Z,0.90
2023-03-28T06:27:42.337Z,0.90
2023-03-28T06:30:30.949Z,0.90
2023-03-28T06:33:19.265Z,0.80
2023-03-28T06:36:08.053Z,0.80
2023-03-28T06:38:58.447Z,0.90
2023-03-28T06:41:48.478Z,0.80
2023-03-28T06:44:36.935Z,0.90
2023-03-28T06:47:25.497Z,0.90
2023-03-28T06:50:14.067Z,0.90
2023-03-28T06:53:02.519Z,0.97
2023-03-28T06:55:51.371Z,0.90
2023-03-28T06:58:41.047Z,1.00
2023-03-28T07:01:29.409Z,0.80
2023-03-28T07:04:17.840Z,0.80
2023-03-28T07:07:07.991Z,1.00
2023-03-28T07:09:56.570Z,0.70
2023-03-28T07:12:45.236Z,0.77
2023-03-28T07:15:35.496Z,0.90
2023-03-28T07:18:25.501Z,0.90
2023-03-28T07:21:16.088Z,0.90
2023-03-28T07:24:04.476Z,0.83
2023-03-28T07:26:58.738Z,1.00
2023-03-28T07:29:56.077Z,0.80
2023-03-28T07:35:40.881Z,0.80
2023-03-28T07:38:29.263Z,1.00
2023-03-28T07:41:17.979Z,1.00
2023-03-28T07:44:06.352Z,0.87
2023-03-28T07:46:54.848Z,1.10
2023-03-28T07:49:45.399Z,0.80
2023-03-28T07:52:34.218Z,0.80
2023-03-28T07:55:22.487Z,0.73
2023-03-28T07:58:10.803Z,0.70
2023-03-28T08:01:05.675Z,0.90
2023-03-28T08:03:54.281Z,0.90
2023-03-28T08:06:45.720Z,0.70
2023-03-28T08:09:34.263Z,0.80
2023-03-28T08:12:22.558Z,0.80
2023-03-28T08:15:11.677Z,0.63
2023-03-28T08:18:00.233Z,0.70
2023-03-28T08:20:48.684Z,0.70
2023-03-28T08:23:38.393Z,0.70
2023-03-28T08:26:27.261Z,0.60
2023-03-28T08:29:15.718Z,1.00
2023-03-28T08:32:06.354Z,0.63
2023-03-28T08:34:55.627Z,0.90
2023-03-28T08:37:43.998Z,0.80
2023-03-28T08:40:35.083Z,0.80
2023-03-28T08:43:45.173Z,1.00
2023-03-28T08:46:34.726Z,0.83
2023-03-28T08:49:23.312Z,0.90
2023-03-28T08:52:15.075Z,0.80
2023-03-28T08:55:08.733Z,0.80
2023-03-28T08:57:59.803Z,0.90
2023-03-28T09:00:49.450Z,1.80
2023-03-28T09:03:38.097Z,0.70
2023-03-28T09:06:30.911Z,0.90
2023-03-28T09:09:39.526Z,1.00
2023-03-28T09:12:40.968Z,0.93
2023-03-28T09:15:50.897Z,0.93
2023-03-28T09:19:00.570Z,0.80
2023-03-28T09:22:14.894Z,0.70
2023-03-28T09:25:24.101Z,0.70
2023-03-28T09:28:28.369Z,0.90
2023-03-28T09:31:20.985Z,0.63
2023-03-28T09:34:20.115Z,0.70
2023-03-28T09:37:21.503Z,0.93
2023-03-28T09:40:19.178Z,0.80
2023-03-28T09:43:16.650Z,0.80
2023-03-28T09:46:08.812Z,0.90
2023-03-28T09:48:58.995Z,0.70
2023-03-28T09:51:47.640Z,0.60
2023-03-28T09:54:36.830Z,0.80
2023-03-28T09:57:25.489Z,0.70
2023-03-28T10:00:22.441Z,1.00
2023-03-28T10:03:23.381Z,0.77
2023-03-28T10:06:25.020Z,0.90
2023-03-28T10:09:19.419Z,0.80
2023-03-28T10:12:11.918Z,0.70
2023-03-28T10:15:00.701Z,0.70
2023-03-28T10:17:51.579Z,0.70
2023-03-28T10:20:42.339Z,0.80
2023-03-28T10:23:32.778Z,0.90
2023-03-28T10:26:25.131Z,0.80
2023-03-28T10:29:15.308Z,1.00
2023-03-28T10:32:04.039Z,0.70
2023-03-28T10:35:02.084Z,1.00
2023-03-28T10:37:55.731Z,1.00
2023-03-28T10:40:53.496Z,0.80
2023-03-28T10:43:43.548Z,0.87
2023-03-28T10:46:34.284Z,0.70
2023-03-28T10:49:23.585Z,0.90
2023-03-28T10:52:22.843Z,0.70
2023-03-28T10:55:17.497Z,0.53
2023-03-28T10:58:15.670Z,0.87
2023-03-28T11:01:11.370Z,0.80
2023-03-28T11:04:16.311Z,0.70
2023-03-28T11:07:11.743Z,0.60
2023-03-28T11:10:07.190Z,0.70
2023-03-28T11:13:05.224Z,0.80
2023-03-28T11:16:01.779Z,0.77
2023-03-28T11:19:05.561Z,0.60
2023-03-28T11:22:01.928Z,0.80
2023-03-28T11:24:57.988Z,0.80
2023-03-28T11:27:54.842Z,1.00
2023-03-28T11:30:47.676Z,0.70
2023-03-28T11:33:44.499Z,0.80
2023-03-28T11:36:37.472Z,0.90
2023-03-28T11:39:36.142Z,0.73
2023-03-28T11:42:30.312Z,0.70
2023-03-28T11:45:42.006Z,0.80
2023-03-28T11:48:43.016Z,0.83
2023-03-28T11:51:37.623Z,0.90
2023-03-28T11:54:32.296Z,0.60
2023-03-28T11:57:29.135Z,0.60
2023-03-28T12:00:33.275Z,0.70
2023-03-28T12:03:26.502Z,0.60
2023-03-28T12:06:23.566Z,0.67
2023-03-28T12:09:19.517Z,0.60
2023-03-28T12:12:14.003Z,0.60
2023-03-28T12:15:06.565Z,0.90
2023-03-28T12:17:59.081Z,0.50
2023-03-28T12:20:53.131Z,0.60
2023-03-28T12:23:58.390Z,0.57
2023-03-28T12:27:03.178Z,0.63
2023-03-28T12:29:59.402Z,0.60
2023-03-28T12:32:53.239Z,0.60
2023-03-28T12:35:48.840Z,0.60
2023-03-28T12:38:46.900Z,0.70
2023-03-28T12:41:38.843Z,0.60
2023-03-28T12:44:30.200Z,0.60
2023-03-28T12:47:22.477Z,0.70
2023-03-28T12:50:16.616Z,0.60
2023-03-28T12:53:05.140Z,0.60
2023-03-28T12:55:55.375Z,0.60
2023-03-28T12:58:49.029Z,0.60
2023-03-28T13:01:47.096Z,0.60
2023-03-28T13:04:43.409Z,0.60
2023-03-28T13:07:42.678Z,0.70
2023-03-28T13:10:39.931Z,0.67
2023-03-28T13:13:45.378Z,0.60
2023-03-28T13:16:46.635Z,0.70
2023-03-28T13:19:57.186Z,0.90
2023-03-28T13:22:53.838Z,0.63
2023-03-28T13:25:44.831Z,0.80
2023-03-28T13:28:40.472Z,0.70
2023-03-28T13:31:29.301Z,0.70
2023-03-28T13:34:24.170Z,0.80
2023-03-28T13:37:23.290Z,0.60
2023-03-28T13:40:45.967Z,0.90
2023-03-28T13:43:43.987Z,0.70
2023-03-28T13:46:36.692Z,0.80
2023-03-28T13:49:36.443Z,0.70
2023-03-28T13:52:26.505Z,0.80
2023-03-28T13:55:22.188Z,1.17
2023-03-28T13:58:13.409Z,0.90
2023-03-28T14:01:15.621Z,0.80
2023-03-28T14:04:10.934Z,0.90
2023-03-28T14:07:00.392Z,0.80
2023-03-28T14:09:51.073Z,1.00
2023-03-28T14:12:40.048Z,0.80
2023-03-28T14:15:31.416Z,0.70
2023-03-28T14:18:36.117Z,0.90
2023-03-28T14:21:26.187Z,1.20
2023-03-28T14:24:21.503Z,1.20
2023-03-28T14:27:14.347Z,0.83
2023-03-28T14:30:03.471Z,1.17
2023-03-28T14:32:58.909Z,0.90
2023-03-28T14:35:58.079Z,0.90
2023-03-28T14:38:46.974Z,0.83
2023-03-28T14:41:37.652Z,1.00
2023-03-28T14:44:26.766Z,0.83
2023-03-28T14:47:18.442Z,0.80
2023-03-28T14:50:08.462Z,0.80
2023-03-28T14:53:04.190Z,0.90
2023-03-28T14:55:54.943Z,0.70
2023-03-28T14:58:47.380Z,0.80
2023-03-28T15:01:37.910Z,0.83
2023-03-28T15:04:27.724Z,0.90
2023-03-28T15:07:24.260Z,0.90
2023-03-28T15:10:24.948Z,0.70
2023-03-28T15:13:18.251Z,0.70
2023-03-28T15:16:09.150Z,0.70
2023-03-28T15:19:00.828Z,0.90
2023-03-28T15:21:55.718Z,0.80
2023-03-28T15:24:45.641Z,0.80
2023-03-28T15:27:37.074Z,0.90
2023-03-28T15:30:26.934Z,0.80
2023-03-28T15:33:19.671Z,0.80
2023-03-28T15:36:14.258Z,0.60
2023-03-28T15:39:11.898Z,0.77
2023-03-28T15:42:02.751Z,0.57
2023-03-28T15:45:22.389Z,0.90
2023-03-28T15:48:20.401Z,0.70
2023-03-28T15:51:15.545Z,0.60
2023-03-28T15:54:04.194Z,0.70
2023-03-28T15:56:53.181Z,0.57
2023-03-28T15:59:46.461Z,0.70
2023-03-28T16:02:37.539Z,0.80
2023-03-28T16:05:37.686Z,0.70
2023-03-28T16:08:31.150Z,0.70
2023-03-28T16:11:23.476Z,1.10
2023-03-28T16:14:17.285Z,0.60
2023-03-28T16:17:09.230Z,0.70
2023-03-28T16:19:59.293Z,0.90
2023-03-28T16:22:48.811Z,0.83
2023-03-28T16:25:37.365Z,1.30
2023-03-28T16:28:25.885Z,0.90
2023-03-28T16:31:16.043Z,1.20
2023-03-28T16:34:06.546Z,1.00
2023-03-28T16:36:58.545Z,0.70
2023-03-28T16:39:47.708Z,0.80
2023-03-28T16:42:36.372Z,1.00
2023-03-28T16:45:24.900Z,0.70
2023-03-28T16:48:13.521Z,0.90
2023-03-28T16:51:05.338Z,0.80
2023-03-28T16:53:55.534Z,0.97
2023-03-28T16:56:44.211Z,0.80
2023-03-28T16:59:32.730Z,0.80
2023-03-28T17:02:21.684Z,0.80
2023-03-28T17:05:10.800Z,0.70
2023-03-28T17:07:59.835Z,0.70
2023-03-28T17:10:49.722Z,0.77
2023-03-28T17:13:39.025Z,0.80
2023-03-28T17:16:27.797Z,0.80
2023-03-28T17:19:19.569Z,0.70
2023-03-28T17:22:08.648Z,1.20
2023-03-28T17:24:59.803Z,0.80
2023-03-28T17:27:50.183Z,1.17
2023-03-28T17:30:40.164Z,0.77
2023-03-28T17:33:31.409Z,0.73
2023-03-28T17:36:22.379Z,0.80
2023-03-28T17:39:12.653Z,0.83
2023-03-28T17:42:01.489Z,1.13
2023-03-28T17:44:51.466Z,1.20
2023-03-28T17:47:40.647Z,0.90
2023-03-28T17:50:29.171Z,0.87
2023-03-28T17:53:17.735Z,0.90
2023-03-28T17:56:07.146Z,0.80
2023-03-28T17:58:56.497Z,0.80
2023-03-28T18:01:46.793Z,0.80
2023-03-28T18:04:35.826Z,1.03
2023-03-28T18:07:25.171Z,1.10
2023-03-28T18:10:15.259Z,1.00
2023-03-28T18:13:03.734Z,0.90
2023-03-28T18:15:52.256Z,1.10
2023-03-28T18:18:42.810Z,1.00
2023-03-28T18:21:31.489Z,1.10
2023-03-28T18:24:20.648Z,1.00
2023-03-28T18:27:09.373Z,1.10
2023-03-28T18:29:58.144Z,1.20
2023-03-28T18:32:47.521Z,1.03
2023-03-28T18:35:37.928Z,1.00
2023-03-28T18:38:26.786Z,1.03
2023-03-28T18:41:15.792Z,1.00
2023-03-28T18:44:04.848Z,1.10
2023-03-28T18:46:54.981Z,1.10
2023-03-28T18:49:43.330Z,1.00
2023-03-28T18:52:33.509Z,1.27
2023-03-28T18:55:22.478Z,1.50
2023-03-28T18:58:12.013Z,1.30
2023-03-28T19:01:03.740Z,1.30
2023-03-28T19:03:52.872Z,1.67
2023-03-28T19:06:41.357Z,1.60
2023-03-28T19:09:31.393Z,1.73
2023-03-28T19:12:19.882Z,1.57
2023-03-28T19:15:10.811Z,1.60
2023-03-28T19:18:02.734Z,1.50
2023-03-28T19:20:51.771Z,2.07
2023-03-28T19:23:40.852Z,1.60
2023-03-28T19:26:30.796Z,1.67
2023-03-28T19:29:19.304Z,1.50
2023-03-28T19:32:08.278Z,1.40
2023-03-28T19:34:57.363Z,1.53
2023-03-28T19:37:45.988Z,1.50
2023-03-28T19:40:34.588Z,1.70
2023-03-28T19:43:25.019Z,1.90
2023-03-28T19:46:17.248Z,1.30
2023-03-28T19:49:07.005Z,1.60
2023-03-28T19:51:55.580Z,1.60
2023-03-28T19:54:44.387Z,1.93
2023-03-28T19:57:33.166Z,1.30
2023-03-28T20:00:23.581Z,1.40
2023-03-28T20:03:12.222Z,1.90
2023-03-28T20:06:04.404Z,1.60
2023-03-28T20:08:53.143Z,1.90
2023-03-28T20:11:42.218Z,1.80
2023-03-28T20:14:30.659Z,2.00
2023-03-28T20:17:20.323Z,1.77
2023-03-28T20:20:10.532Z,1.77
2023-03-28T20:23:00.007Z,1.73
2023-03-28T20:25:48.584Z,1.63
2023-03-28T20:28:38.335Z,1.70
2023-03-28T20:31:27.249Z,1.30
2023-03-28T20:34:20.212Z,1.43
2023-03-28T20:37:08.600Z,1.70
2023-03-28T20:39:57.267Z,1.73
2023-03-28T20:42:45.640Z,1.43
2023-03-28T20:45:34.080Z,1.37
2023-03-28T20:48:34.934Z,1.90
2023-03-28T20:51:26.069Z,1.97
2023-03-28T20:54:15.070Z,2.10
2023-03-28T20:57:03.577Z,1.90
2023-03-28T20:59:55.241Z,1.87
2023-03-28T21:02:46.304Z,1.93
2023-03-28T21:05:35.113Z,2.10
2023-03-28T21:08:27.853Z,1.80
2023-03-28T21:11:18.371Z,2.50
2023-03-28T21:14:09.044Z,2.30
2023-03-28T21:16:58.075Z,2.37
2023-03-28T21:19:46.746Z,2.50
2023-03-28T21:22:35.615Z,2.37
2023-03-28T21:25:25.308Z,2.30
2023-03-28T21:28:13.744Z,2.20
2023-03-28T21:31:04.328Z,2.77
2023-03-28T21:33:53.593Z,2.80
2023-03-28T21:36:41.992Z,2.70
2023-03-28T21:39:30.605Z,3.03
2023-03-28T21:42:20.515Z,3.00
2023-03-28T21:45:11.799Z,3.00
2023-03-28T21:48:00.248Z,3.08
2023-03-28T21:50:53.832Z,2.80
2023-03-28T21:53:43.130Z,2.87
2023-03-28T21:56:31.905Z,3.40
2023-03-28T21:59:21.953Z,3.43
2023-03-28T22:02:10.369Z,2.90
2023-03-28T22:04:58.909Z,3.30
2023-03-28T22:07:48.031Z,2.77
2023-03-28T22:10:37.610Z,3.07
2023-03-28T22:13:29.260Z,3.47
2023-03-28T22:16:19.043Z,3.40
2023-03-28T22:19:09.849Z,3.40
2023-03-28T22:22:00.924Z,2.90
2023-03-28T22:24:49.426Z,3.17
2023-03-28T22:27:38.725Z,2.93
2023-03-28T22:30:27.846Z,3.10
2023-03-28T22:33:19.420Z,2.70
2023-03-28T22:36:08.823Z,2.87
2023-03-28T22:38:57.319Z,2.63
2023-03-28T22:41:46.214Z,2.90
2023-03-28T22:44:34.612Z,2.70
2023-03-28T22:47:30.517Z,2.87
2023-03-28T22:50:22.203Z,2.70
2023-03-28T22:53:12.446Z,2.70
2023-03-28T22:56:01.794Z,2.90
2023-03-28T22:58:51.047Z,2.90
2023-03-28T23:01:39.548Z,2.67
2023-03-28T23:04:27.931Z,2.70
2023-03-28T23:07:18.187Z,2.33
2023-03-28T23:10:09.321Z,2.60
2023-03-28T23:12:57.791Z,2.50
2023-03-28T23:15:46.480Z,2.60
2023-03-28T23:18:35.008Z,2.20
2023-03-28T23:21:24.567Z,2.60
2023-03-28T23:24:14.364Z,2.33
2023-03-28T23:27:05.054Z,1.97
2023-03-28T23:29:53.496Z,2.13
2023-03-28T23:32:42.141Z,2.30
2023-03-28T23:35:30.683Z,1.90
2023-03-28T23:38:19.253Z,1.97
2023-03-28T23:41:09.355Z,2.10
2023-03-28T23:43:57.693Z,2.35
2023-03-28T23:46:46.139Z,2.03
2023-03-28T23:49:34.585Z,2.07
2023-03-28T23:52:23.066Z,2.40
2023-03-28T23:55:11.316Z,2.10
2023-03-28T23:58:04.039Z,2.87
